sensor_id;sensor_type;location;lat;lon;timestamp;P1;durP1;ratioP1;P2;durP2;ratioP2
9288;SDS011;4683;50.864;12.086;2022-07-30T00:01:58;4.80;;;4.40;;
9288;SDS011;4683;50.864;12.086;2022-07-30T00:04:28;5.13;;;4.63;;
9288;SDS011;4683;50.864;12.086;2022-07-30T00:06:58;4.17;;;3.87;;
9288;SDS011;4683;50.864;12.086;2022-07-30T00:09:30;5.20;;;4.33;;
9288;SDS011;4683;50.864;12.086;2022-07-30T00:11:59;4.30;;;3.90;;
9288;SDS011;4683;50.864;12.086;2022-07-30T00:14:27;4.30;;;4.00;;
9288;SDS011;4683;50.864;12.086;2022-07-30T00:16:56;4.37;;;4.07;;
9288;SDS011;4683;50.864;12.086;2022-07-30T00:19:25;4.13;;;3.83;;
9288;SDS011;4683;50.864;12.086;2022-07-30T00:21:55;5.07;;;4.57;;
9288;SDS011;4683;50.864;12.086;2022-07-30T00:24:23;4.70;;;4.30;;
9288;SDS011;4683;50.864;12.086;2022-07-30T00:26:56;4.50;;;4.20;;
9288;SDS011;4683;50.864;12.086;2022-07-30T00:29:27;4.83;;;4.43;;
9288;SDS011;4683;50.864;12.086;2022-07-30T00:31:56;5.27;;;4.60;;
9288;SDS011;4683;50.864;12.086;2022-07-30T00:34:25;5.00;;;4.50;;
9288;SDS011;4683;50.864;12.086;2022-07-30T00:36:56;5.33;;;4.40;;
9288;SDS011;4683;50.864;12.086;2022-07-30T00:39:25;4.57;;;4.23;;
9288;SDS011;4683;50.864;12.086;2022-07-30T00:41:57;4.70;;;4.30;;
9288;SDS011;4683;50.864;12.086;2022-07-30T00:44:29;5.63;;;4.80;;
9288;SDS011;4683;50.864;12.086;2022-07-30T00:46:57;4.80;;;4.40;;
9288;SDS011;4683;50.864;12.086;2022-07-30T00:49:25;5.13;;;4.63;;
9288;SDS011;4683;50.864;12.086;2022-07-30T00:51:57;4.83;;;4.33;;
9288;SDS011;4683;50.864;12.086;2022-07-30T00:54:25;5.40;;;4.90;;
9288;SDS011;4683;50.864;12.086;2022-07-30T00:56:55;5.30;;;4.80;;
9288;SDS011;4683;50.864;12.086;2022-07-30T00:59:24;4.67;;;4.37;;
9288;SDS011;4683;50.864;12.086;2022-07-30T01:01:53;5.97;;;5.47;;
9288;SDS011;4683;50.864;12.086;2022-07-30T01:04:22;5.33;;;4.93;;
9288;SDS011;4683;50.864;12.086;2022-07-30T01:06:50;5.20;;;4.77;;
9288;SDS011;4683;50.864;12.086;2022-07-30T01:09:18;5.17;;;4.70;;
9288;SDS011;4683;50.864;12.086;2022-07-30T01:11:48;4.40;;;4.03;;
9288;SDS011;4683;50.864;12.086;2022-07-30T01:14:17;5.20;;;4.80;;
9288;SDS011;4683;50.864;12.086;2022-07-30T01:16:46;6.27;;;5.30;;
9288;SDS011;4683;50.864;12.086;2022-07-30T01:19:16;5.83;;;5.30;;
9288;SDS011;4683;50.864;12.086;2022-07-30T01:22:09;5.20;;;4.70;;
9288;SDS011;4683;50.864;12.086;2022-07-30T01:24:52;5.97;;;5.37;;
9288;SDS011;4683;50.864;12.086;2022-07-30T01:27:35;6.03;;;5.53;;
9288;SDS011;4683;50.864;12.086;2022-07-30T01:30:09;6.10;;;5.60;;
9288;SDS011;4683;50.864;12.086;2022-07-30T01:32:43;5.63;;;5.23;;
9288;SDS011;4683;50.864;12.086;2022-07-30T01:35:12;5.70;;;5.10;;
9288;SDS011;4683;50.864;12.086;2022-07-30T01:37:43;6.93;;;6.33;;
9288;SDS011;4683;50.864;12.086;2022-07-30T01:40:13;7.33;;;6.73;;
9288;SDS011;4683;50.864;12.086;2022-07-30T01:42:45;5.73;;;5.17;;
9288;SDS011;4683;50.864;12.086;2022-07-30T01:45:19;5.57;;;5.17;;
9288;SDS011;4683;50.864;12.086;2022-07-30T01:47:50;5.70;;;5.20;;
9288;SDS011;4683;50.864;12.086;2022-07-30T01:50:21;5.83;;;5.33;;
9288;SDS011;4683;50.864;12.086;2022-07-30T01:52:50;5.50;;;5.10;;
9288;SDS011;4683;50.864;12.086;2022-07-30T01:55:20;6.47;;;5.10;;
9288;SDS011;4683;50.864;12.086;2022-07-30T01:57:56;5.80;;;5.30;;
9288;SDS011;4683;50.864;12.086;2022-07-30T02:00:26;6.20;;;5.57;;
9288;SDS011;4683;50.864;12.086;2022-07-30T02:02:56;6.07;;;5.60;;
9288;SDS011;4683;50.864;12.086;2022-07-30T02:05:25;6.67;;;6.10;;
9288;SDS011;4683;50.864;12.086;2022-07-30T02:07:58;6.57;;;5.97;;
9288;SDS011;4683;50.864;12.086;2022-07-30T02:10:33;7.50;;;6.90;;
9288;SDS011;4683;50.864;12.086;2022-07-30T02:13:09;7.57;;;6.87;;
9288;SDS011;4683;50.864;12.086;2022-07-30T02:15:40;7.20;;;6.60;;
9288;SDS011;4683;50.864;12.086;2022-07-30T02:18:16;7.57;;;6.93;;
9288;SDS011;4683;50.864;12.086;2022-07-30T02:20:50;6.97;;;6.37;;
9288;SDS011;4683;50.864;12.086;2022-07-30T02:23:28;7.63;;;7.03;;
9288;SDS011;4683;50.864;12.086;2022-07-30T02:25:59;7.97;;;7.37;;
9288;SDS011;4683;50.864;12.086;2022-07-30T02:28:31;6.93;;;6.43;;
9288;SDS011;4683;50.864;12.086;2022-07-30T02:31:02;6.80;;;6.30;;
9288;SDS011;4683;50.864;12.086;2022-07-30T02:33:37;7.13;;;6.43;;
9288;SDS011;4683;50.864;12.086;2022-07-30T02:36:09;7.90;;;7.20;;
9288;SDS011;4683;50.864;12.086;2022-07-30T02:38:39;8.10;;;7.40;;
9288;SDS011;4683;50.864;12.086;2022-07-30T02:41:09;8.20;;;7.50;;
9288;SDS011;4683;50.864;12.086;2022-07-30T02:43:41;7.77;;;7.17;;
9288;SDS011;4683;50.864;12.086;2022-07-30T02:46:10;7.00;;;6.50;;
9288;SDS011;4683;50.864;12.086;2022-07-30T02:48:41;8.13;;;7.33;;
9288;SDS011;4683;50.864;12.086;2022-07-30T02:51:10;7.10;;;6.50;;
9288;SDS011;4683;50.864;12.086;2022-07-30T02:53:44;5.83;;;5.43;;
9288;SDS011;4683;50.864;12.086;2022-07-30T02:56:14;6.37;;;5.87;;
9288;SDS011;4683;50.864;12.086;2022-07-30T02:58:48;6.00;;;5.50;;
9288;SDS011;4683;50.864;12.086;2022-07-30T03:01:18;5.73;;;5.27;;
9288;SDS011;4683;50.864;12.086;2022-07-30T03:03:49;6.00;;;5.50;;
9288;SDS011;4683;50.864;12.086;2022-07-30T03:06:18;6.03;;;5.53;;
9288;SDS011;4683;50.864;12.086;2022-07-30T03:08:56;6.50;;;5.80;;
9288;SDS011;4683;50.864;12.086;2022-07-30T03:11:25;6.20;;;5.70;;
9288;SDS011;4683;50.864;12.086;2022-07-30T03:13:57;6.73;;;6.13;;
9288;SDS011;4683;50.864;12.086;2022-07-30T03:16:25;6.33;;;5.83;;
9288;SDS011;4683;50.864;12.086;2022-07-30T03:18:57;5.47;;;5.07;;
9288;SDS011;4683;50.864;12.086;2022-07-30T03:21:29;6.63;;;6.13;;
9288;SDS011;4683;50.864;12.086;2022-07-30T03:24:00;6.73;;;6.13;;
9288;SDS011;4683;50.864;12.086;2022-07-30T03:26:30;6.60;;;6.00;;
9288;SDS011;4683;50.864;12.086;2022-07-30T03:29:03;6.27;;;5.77;;
9288;SDS011;4683;50.864;12.086;2022-07-30T03:31:32;6.20;;;5.70;;
9288;SDS011;4683;50.864;12.086;2022-07-30T03:34:05;6.07;;;5.57;;
9288;SDS011;4683;50.864;12.086;2022-07-30T03:36:34;6.03;;;5.43;;
9288;SDS011;4683;50.864;12.086;2022-07-30T03:39:04;5.77;;;5.27;;
9288;SDS011;4683;50.864;12.086;2022-07-30T03:41:35;5.77;;;5.37;;
9288;SDS011;4683;50.864;12.086;2022-07-30T03:44:06;5.80;;;5.40;;
9288;SDS011;4683;50.864;12.086;2022-07-30T03:46:35;6.37;;;5.87;;
9288;SDS011;4683;50.864;12.086;2022-07-30T03:49:05;6.67;;;6.07;;
9288;SDS011;4683;50.864;12.086;2022-07-30T03:51:36;7.27;;;6.50;;
9288;SDS011;4683;50.864;12.086;2022-07-30T03:54:04;6.90;;;6.20;;
9288;SDS011;4683;50.864;12.086;2022-07-30T03:56:36;6.57;;;6.07;;
9288;SDS011;4683;50.864;12.086;2022-07-30T03:59:07;7.13;;;6.53;;
9288;SDS011;4683;50.864;12.086;2022-07-30T04:01:35;7.10;;;6.40;;
9288;SDS011;4683;50.864;12.086;2022-07-30T04:04:04;7.13;;;6.50;;
9288;SDS011;4683;50.864;12.086;2022-07-30T04:06:33;7.60;;;7.00;;
9288;SDS011;4683;50.864;12.086;2022-07-30T04:09:05;7.33;;;6.80;;
9288;SDS011;4683;50.864;12.086;2022-07-30T04:11:34;7.30;;;6.77;;
9288;SDS011;4683;50.864;12.086;2022-07-30T04:14:02;7.67;;;6.97;;
9288;SDS011;4683;50.864;12.086;2022-07-30T04:16:36;7.97;;;7.33;;
9288;SDS011;4683;50.864;12.086;2022-07-30T04:19:11;7.60;;;6.90;;
9288;SDS011;4683;50.864;12.086;2022-07-30T04:21:47;8.20;;;7.50;;
9288;SDS011;4683;50.864;12.086;2022-07-30T04:24:18;8.17;;;7.47;;
9288;SDS011;4683;50.864;12.086;2022-07-30T04:26:48;7.80;;;7.10;;
9288;SDS011;4683;50.864;12.086;2022-07-30T04:29:17;8.37;;;7.67;;
9288;SDS011;4683;50.864;12.086;2022-07-30T04:31:48;8.60;;;7.80;;
9288;SDS011;4683;50.864;12.086;2022-07-30T04:34:17;8.80;;;8.10;;
9288;SDS011;4683;50.864;12.086;2022-07-30T04:36:46;8.27;;;7.47;;
9288;SDS011;4683;50.864;12.086;2022-07-30T04:39:14;7.67;;;7.07;;
9288;SDS011;4683;50.864;12.086;2022-07-30T04:41:43;8.63;;;7.93;;
9288;SDS011;4683;50.864;12.086;2022-07-30T04:44:11;9.03;;;8.27;;
9288;SDS011;4683;50.864;12.086;2022-07-30T04:46:39;9.07;;;8.27;;
9288;SDS011;4683;50.864;12.086;2022-07-30T04:49:09;8.77;;;8.07;;
9288;SDS011;4683;50.864;12.086;2022-07-30T04:51:40;9.83;;;8.93;;
9288;SDS011;4683;50.864;12.086;2022-07-30T04:54:12;8.90;;;8.20;;
9288;SDS011;4683;50.864;12.086;2022-07-30T04:56:42;9.10;;;8.23;;
9288;SDS011;4683;50.864;12.086;2022-07-30T04:59:13;8.63;;;7.93;;
9288;SDS011;4683;50.864;12.086;2022-07-30T05:01:42;8.90;;;8.13;;
9288;SDS011;4683;50.864;12.086;2022-07-30T05:04:17;8.93;;;8.23;;
9288;SDS011;4683;50.864;12.086;2022-07-30T05:06:48;9.30;;;8.50;;
9288;SDS011;4683;50.864;12.086;2022-07-30T05:09:17;8.77;;;8.07;;
9288;SDS011;4683;50.864;12.086;2022-07-30T05:11:48;10.20;;;9.40;;
9288;SDS011;4683;50.864;12.086;2022-07-30T05:14:18;9.43;;;8.63;;
9288;SDS011;4683;50.864;12.086;2022-07-30T05:16:48;9.10;;;8.40;;
9288;SDS011;4683;50.864;12.086;2022-07-30T05:19:18;8.47;;;7.83;;
9288;SDS011;4683;50.864;12.086;2022-07-30T05:21:50;8.73;;;7.93;;
9288;SDS011;4683;50.864;12.086;2022-07-30T05:24:19;8.30;;;7.60;;
9288;SDS011;4683;50.864;12.086;2022-07-30T05:26:47;6.13;;;5.73;;
9288;SDS011;4683;50.864;12.086;2022-07-30T05:29:16;6.43;;;5.90;;
9288;SDS011;4683;50.864;12.086;2022-07-30T05:31:45;7.73;;;7.13;;
9288;SDS011;4683;50.864;12.086;2022-07-30T05:34:14;6.90;;;6.40;;
9288;SDS011;4683;50.864;12.086;2022-07-30T05:36:44;6.97;;;6.47;;
9288;SDS011;4683;50.864;12.086;2022-07-30T05:39:13;6.80;;;6.27;;
9288;SDS011;4683;50.864;12.086;2022-07-30T05:41:41;7.20;;;6.60;;
9288;SDS011;4683;50.864;12.086;2022-07-30T05:44:10;6.43;;;5.83;;
9288;SDS011;4683;50.864;12.086;2022-07-30T05:46:38;7.30;;;6.70;;
9288;SDS011;4683;50.864;12.086;2022-07-30T05:49:06;7.03;;;6.43;;
9288;SDS011;4683;50.864;12.086;2022-07-30T05:51:34;6.33;;;5.83;;
9288;SDS011;4683;50.864;12.086;2022-07-30T05:54:04;6.30;;;5.80;;
9288;SDS011;4683;50.864;12.086;2022-07-30T05:56:32;6.20;;;5.80;;
9288;SDS011;4683;50.864;12.086;2022-07-30T05:59:05;5.80;;;5.27;;
9288;SDS011;4683;50.864;12.086;2022-07-30T06:01:33;6.50;;;5.70;;
9288;SDS011;4683;50.864;12.086;2022-07-30T06:04:01;6.23;;;5.73;;
9288;SDS011;4683;50.864;12.086;2022-07-30T06:06:31;6.37;;;5.80;;
9288;SDS011;4683;50.864;12.086;2022-07-30T06:08:59;6.13;;;5.63;;
9288;SDS011;4683;50.864;12.086;2022-07-30T06:11:28;5.77;;;5.37;;
9288;SDS011;4683;50.864;12.086;2022-07-30T06:13:58;5.67;;;5.20;;
9288;SDS011;4683;50.864;12.086;2022-07-30T06:16:26;5.87;;;5.47;;
9288;SDS011;4683;50.864;12.086;2022-07-30T06:18:55;6.00;;;5.43;;
9288;SDS011;4683;50.864;12.086;2022-07-30T06:21:23;5.53;;;5.03;;
9288;SDS011;4683;50.864;12.086;2022-07-30T06:23:51;6.20;;;5.80;;
9288;SDS011;4683;50.864;12.086;2022-07-30T06:26:20;6.17;;;5.70;;
9288;SDS011;4683;50.864;12.086;2022-07-30T06:28:50;5.53;;;4.97;;
9288;SDS011;4683;50.864;12.086;2022-07-30T06:31:18;6.00;;;5.50;;
9288;SDS011;4683;50.864;12.086;2022-07-30T06:33:47;5.93;;;5.43;;
9288;SDS011;4683;50.864;12.086;2022-07-30T06:36:16;6.30;;;5.70;;
9288;SDS011;4683;50.864;12.086;2022-07-30T06:38:47;6.00;;;5.60;;
9288;SDS011;4683;50.864;12.086;2022-07-30T06:41:15;6.10;;;5.57;;
9288;SDS011;4683;50.864;12.086;2022-07-30T06:43:44;6.83;;;5.97;;
9288;SDS011;4683;50.864;12.086;2022-07-30T06:46:13;6.03;;;5.63;;
9288;SDS011;4683;50.864;12.086;2022-07-30T06:48:41;6.77;;;6.10;;
9288;SDS011;4683;50.864;12.086;2022-07-30T06:51:09;6.40;;;5.90;;
9288;SDS011;4683;50.864;12.086;2022-07-30T06:53:38;6.10;;;5.60;;
9288;SDS011;4683;50.864;12.086;2022-07-30T06:56:07;6.17;;;5.77;;
9288;SDS011;4683;50.864;12.086;2022-07-30T06:58:35;7.03;;;6.53;;
9288;SDS011;4683;50.864;12.086;2022-07-30T07:01:04;7.47;;;6.87;;
9288;SDS011;4683;50.864;12.086;2022-07-30T07:03:33;6.73;;;6.23;;
9288;SDS011;4683;50.864;12.086;2022-07-30T07:06:02;6.60;;;6.10;;
9288;SDS011;4683;50.864;12.086;2022-07-30T07:08:31;6.70;;;6.20;;
9288;SDS011;4683;50.864;12.086;2022-07-30T07:11:01;7.33;;;6.83;;
9288;SDS011;4683;50.864;12.086;2022-07-30T07:13:29;7.60;;;7.03;;
9288;SDS011;4683;50.864;12.086;2022-07-30T07:15:58;7.83;;;7.23;;
9288;SDS011;4683;50.864;12.086;2022-07-30T07:18:26;8.33;;;7.63;;
9288;SDS011;4683;50.864;12.086;2022-07-30T07:20:56;8.40;;;7.70;;
9288;SDS011;4683;50.864;12.086;2022-07-30T07:23:24;8.00;;;7.30;;
9288;SDS011;4683;50.864;12.086;2022-07-30T07:25:52;9.27;;;8.57;;
9288;SDS011;4683;50.864;12.086;2022-07-30T07:28:22;8.20;;;7.63;;
9288;SDS011;4683;50.864;12.086;2022-07-30T07:30:50;9.43;;;8.70;;
9288;SDS011;4683;50.864;12.086;2022-07-30T07:33:18;7.83;;;7.17;;
9288;SDS011;4683;50.864;12.086;2022-07-30T07:35:47;8.80;;;8.10;;
9288;SDS011;4683;50.864;12.086;2022-07-30T07:38:16;8.23;;;7.63;;
9288;SDS011;4683;50.864;12.086;2022-07-30T07:40:44;8.47;;;7.87;;
9288;SDS011;4683;50.864;12.086;2022-07-30T07:43:16;9.60;;;8.90;;
9288;SDS011;4683;50.864;12.086;2022-07-30T07:45:44;12.17;;;10.97;;
9288;SDS011;4683;50.864;12.086;2022-07-30T07:48:13;12.13;;;11.10;;
9288;SDS011;4683;50.864;12.086;2022-07-30T07:50:41;12.37;;;11.47;;
9288;SDS011;4683;50.864;12.086;2022-07-30T07:53:10;11.90;;;11.00;;
9288;SDS011;4683;50.864;12.086;2022-07-30T07:55:39;13.03;;;11.97;;
9288;SDS011;4683;50.864;12.086;2022-07-30T07:58:08;12.77;;;11.77;;
9288;SDS011;4683;50.864;12.086;2022-07-30T08:00:38;13.63;;;12.53;;
9288;SDS011;4683;50.864;12.086;2022-07-30T08:03:06;14.67;;;13.37;;
9288;SDS011;4683;50.864;12.086;2022-07-30T08:05:35;16.00;;;14.57;;
9288;SDS011;4683;50.864;12.086;2022-07-30T08:08:04;16.43;;;15.03;;
9288;SDS011;4683;50.864;12.086;2022-07-30T08:10:36;15.57;;;14.33;;
9288;SDS011;4683;50.864;12.086;2022-07-30T08:13:06;15.03;;;13.70;;
9288;SDS011;4683;50.864;12.086;2022-07-30T08:15:35;15.80;;;14.50;;
9288;SDS011;4683;50.864;12.086;2022-07-30T08:18:04;14.93;;;13.53;;
9288;SDS011;4683;50.864;12.086;2022-07-30T08:20:37;14.97;;;13.77;;
9288;SDS011;4683;50.864;12.086;2022-07-30T08:23:08;16.90;;;15.60;;
9288;SDS011;4683;50.864;12.086;2022-07-30T08:25:37;15.87;;;14.57;;
9288;SDS011;4683;50.864;12.086;2022-07-30T08:28:07;14.63;;;13.43;;
9288;SDS011;4683;50.864;12.086;2022-07-30T08:30:36;13.67;;;12.67;;
9288;SDS011;4683;50.864;12.086;2022-07-30T08:33:05;12.97;;;11.77;;
9288;SDS011;4683;50.864;12.086;2022-07-30T08:35:33;13.23;;;12.10;;
9288;SDS011;4683;50.864;12.086;2022-07-30T08:38:01;12.63;;;11.57;;
9288;SDS011;4683;50.864;12.086;2022-07-30T08:40:31;12.63;;;11.47;;
9288;SDS011;4683;50.864;12.086;2022-07-30T08:43:01;10.97;;;10.17;;
9288;SDS011;4683;50.864;12.086;2022-07-30T08:45:33;11.90;;;10.80;;
9288;SDS011;4683;50.864;12.086;2022-07-30T08:48:05;9.60;;;8.80;;
9288;SDS011;4683;50.864;12.086;2022-07-30T08:50:37;8.70;;;8.00;;
9288;SDS011;4683;50.864;12.086;2022-07-30T08:53:06;11.43;;;10.37;;
9288;SDS011;4683;50.864;12.086;2022-07-30T08:55:34;10.77;;;9.97;;
9288;SDS011;4683;50.864;12.086;2022-07-30T08:58:02;10.03;;;9.23;;
9288;SDS011;4683;50.864;12.086;2022-07-30T09:00:42;9.63;;;8.73;;
9288;SDS011;4683;50.864;12.086;2022-07-30T09:03:11;9.47;;;8.67;;
9288;SDS011;4683;50.864;12.086;2022-07-30T09:05:39;9.70;;;8.90;;
9288;SDS011;4683;50.864;12.086;2022-07-30T09:08:12;10.93;;;10.03;;
9288;SDS011;4683;50.864;12.086;2022-07-30T09:10:41;10.30;;;9.30;;
9288;SDS011;4683;50.864;12.086;2022-07-30T09:13:21;10.07;;;9.00;;
9288;SDS011;4683;50.864;12.086;2022-07-30T09:15:54;10.53;;;9.70;;
9288;SDS011;4683;50.864;12.086;2022-07-30T09:18:28;11.80;;;10.70;;
9288;SDS011;4683;50.864;12.086;2022-07-30T09:20:59;12.80;;;11.70;;
9288;SDS011;4683;50.864;12.086;2022-07-30T09:23:52;14.17;;;12.67;;
9288;SDS011;4683;50.864;12.086;2022-07-30T09:26:56;15.73;;;14.43;;
9288;SDS011;4683;50.864;12.086;2022-07-30T09:29:55;15.90;;;14.30;;
9288;SDS011;4683;50.864;12.086;2022-07-30T09:32:26;13.67;;;12.67;;
9288;SDS011;4683;50.864;12.086;2022-07-30T09:35:18;12.03;;;10.90;;
9288;SDS011;4683;50.864;12.086;2022-07-30T09:37:55;14.70;;;13.37;;
9288;SDS011;4683;50.864;12.086;2022-07-30T09:40:30;13.00;;;11.60;;
9288;SDS011;4683;50.864;12.086;2022-07-30T09:43:02;10.97;;;10.07;;
9288;SDS011;4683;50.864;12.086;2022-07-30T09:45:33;11.00;;;10.20;;
9288;SDS011;4683;50.864;12.086;2022-07-30T09:48:05;12.10;;;11.10;;
9288;SDS011;4683;50.864;12.086;2022-07-30T09:50:47;12.97;;;11.87;;
9288;SDS011;4683;50.864;12.086;2022-07-30T09:53:21;14.00;;;12.80;;
9288;SDS011;4683;50.864;12.086;2022-07-30T09:55:52;15.27;;;13.97;;
9288;SDS011;4683;50.864;12.086;2022-07-30T09:58:22;15.57;;;14.27;;
9288;SDS011;4683;50.864;12.086;2022-07-30T10:00:52;16.00;;;14.80;;
9288;SDS011;4683;50.864;12.086;2022-07-30T10:03:25;16.93;;;15.43;;
9288;SDS011;4683;50.864;12.086;2022-07-30T10:05:54;17.57;;;16.03;;
9288;SDS011;4683;50.864;12.086;2022-07-30T10:08:37;18.83;;;17.33;;
9288;SDS011;4683;50.864;12.086;2022-07-30T10:11:08;19.13;;;17.40;;
9288;SDS011;4683;50.864;12.086;2022-07-30T10:13:40;19.37;;;17.93;;
9288;SDS011;4683;50.864;12.086;2022-07-30T10:16:09;20.73;;;19.03;;
9288;SDS011;4683;50.864;12.086;2022-07-30T10:18:39;21.57;;;19.77;;
9288;SDS011;4683;50.864;12.086;2022-07-30T10:21:12;20.87;;;19.17;;
9288;SDS011;4683;50.864;12.086;2022-07-30T10:23:41;20.23;;;18.27;;
9288;SDS011;4683;50.864;12.086;2022-07-30T10:26:11;19.73;;;18.23;;
9288;SDS011;4683;50.864;12.086;2022-07-30T10:28:46;20.57;;;18.87;;
9288;SDS011;4683;50.864;12.086;2022-07-30T10:31:39;19.43;;;17.93;;
9288;SDS011;4683;50.864;12.086;2022-07-30T10:34:42;18.60;;;17.17;;
9288;SDS011;4683;50.864;12.086;2022-07-30T10:37:14;19.03;;;17.43;;
9288;SDS011;4683;50.864;12.086;2022-07-30T10:39:52;17.07;;;15.73;;
9288;SDS011;4683;50.864;12.086;2022-07-30T10:42:43;18.93;;;17.23;;
9288;SDS011;4683;50.864;12.086;2022-07-30T10:45:46;16.93;;;15.60;;
9288;SDS011;4683;50.864;12.086;2022-07-30T10:48:31;17.50;;;16.10;;
9288;SDS011;4683;50.864;12.086;2022-07-30T10:51:23;16.63;;;15.20;;
9288;SDS011;4683;50.864;12.086;2022-07-30T10:57:10;14.37;;;13.27;;
9288;SDS011;4683;50.864;12.086;2022-07-30T11:02:38;18.77;;;17.07;;
9288;SDS011;4683;50.864;12.086;2022-07-30T11:05:28;16.60;;;15.30;;
9288;SDS011;4683;50.864;12.086;2022-07-30T11:14:12;15.23;;;14.03;;
9288;SDS011;4683;50.864;12.086;2022-07-30T11:16:59;17.70;;;15.97;;
9288;SDS011;4683;50.864;12.086;2022-07-30T11:19:29;15.10;;;13.87;;
9288;SDS011;4683;50.864;12.086;2022-07-30T11:25:37;15.20;;;13.90;;
9288;SDS011;4683;50.864;12.086;2022-07-30T11:37:09;18.70;;;17.03;;
9288;SDS011;4683;50.864;12.086;2022-07-30T11:42:40;18.73;;;17.27;;
9288;SDS011;4683;50.864;12.086;2022-07-30T11:45:23;26.00;;;21.00;;
9288;SDS011;4683;50.864;12.086;2022-07-30T11:47:58;20.00;;;18.23;;
9288;SDS011;4683;50.864;12.086;2022-07-30T11:50:28;18.10;;;16.50;;
9288;SDS011;4683;50.864;12.086;2022-07-30T11:53:00;17.93;;;16.33;;
9288;SDS011;4683;50.864;12.086;2022-07-30T11:55:34;17.30;;;15.90;;
9288;SDS011;4683;50.864;12.086;2022-07-30T11:58:05;13.53;;;12.33;;
9288;SDS011;4683;50.864;12.086;2022-07-30T12:00:37;9.87;;;8.97;;
9288;SDS011;4683;50.864;12.086;2022-07-30T12:03:11;9.63;;;8.83;;
9288;SDS011;4683;50.864;12.086;2022-07-30T12:05:42;9.53;;;8.67;;
9288;SDS011;4683;50.864;12.086;2022-07-30T12:08:11;9.37;;;8.03;;
9288;SDS011;4683;50.864;12.086;2022-07-30T12:10:53;8.87;;;8.07;;
9288;SDS011;4683;50.864;12.086;2022-07-30T12:13:23;8.93;;;8.10;;
9288;SDS011;4683;50.864;12.086;2022-07-30T12:15:52;9.73;;;8.93;;
9288;SDS011;4683;50.864;12.086;2022-07-30T12:18:24;10.00;;;9.07;;
9288;SDS011;4683;50.864;12.086;2022-07-30T12:20:56;10.13;;;9.23;;
9288;SDS011;4683;50.864;12.086;2022-07-30T12:23:37;9.40;;;8.70;;
9288;SDS011;4683;50.864;12.086;2022-07-30T12:29:58;9.93;;;9.13;;
9288;SDS011;4683;50.864;12.086;2022-07-30T12:32:34;10.43;;;9.07;;
9288;SDS011;4683;50.864;12.086;2022-07-30T12:35:04;9.37;;;8.47;;
9288;SDS011;4683;50.864;12.086;2022-07-30T12:37:36;10.50;;;9.60;;
9288;SDS011;4683;50.864;12.086;2022-07-30T12:40:09;11.03;;;10.13;;
9288;SDS011;4683;50.864;12.086;2022-07-30T12:42:49;11.60;;;10.60;;
9288;SDS011;4683;50.864;12.086;2022-07-30T12:45:27;11.90;;;10.83;;
9288;SDS011;4683;50.864;12.086;2022-07-30T12:47:59;11.83;;;10.93;;
9288;SDS011;4683;50.864;12.086;2022-07-30T12:50:38;12.37;;;11.33;;
9288;SDS011;4683;50.864;12.086;2022-07-30T12:53:08;11.40;;;10.50;;
9288;SDS011;4683;50.864;12.086;2022-07-30T12:55:36;10.83;;;10.00;;
9288;SDS011;4683;50.864;12.086;2022-07-30T12:58:07;10.00;;;9.30;;
9288;SDS011;4683;50.864;12.086;2022-07-30T13:00:44;10.90;;;9.97;;
9288;SDS011;4683;50.864;12.086;2022-07-30T13:03:21;8.70;;;8.00;;
9288;SDS011;4683;50.864;12.086;2022-07-30T13:05:53;8.70;;;8.00;;
9288;SDS011;4683;50.864;12.086;2022-07-30T13:11:13;7.80;;;7.20;;
9288;SDS011;4683;50.864;12.086;2022-07-30T13:13:45;7.13;;;6.53;;
9288;SDS011;4683;50.864;12.086;2022-07-30T13:16:14;8.13;;;7.43;;
9288;SDS011;4683;50.864;12.086;2022-07-30T13:18:44;7.40;;;6.70;;
9288;SDS011;4683;50.864;12.086;2022-07-30T13:21:14;7.33;;;6.73;;
9288;SDS011;4683;50.864;12.086;2022-07-30T13:27:49;7.47;;;6.87;;
9288;SDS011;4683;50.864;12.086;2022-07-30T13:30:21;8.23;;;7.43;;
9288;SDS011;4683;50.864;12.086;2022-07-30T13:32:49;7.53;;;6.83;;
9288;SDS011;4683;50.864;12.086;2022-07-30T13:35:18;8.17;;;7.47;;
9288;SDS011;4683;50.864;12.086;2022-07-30T13:37:47;8.03;;;7.33;;
9288;SDS011;4683;50.864;12.086;2022-07-30T13:40:15;8.33;;;7.50;;
9288;SDS011;4683;50.864;12.086;2022-07-30T13:42:43;7.73;;;7.13;;
9288;SDS011;4683;50.864;12.086;2022-07-30T13:45:12;9.13;;;8.43;;
9288;SDS011;4683;50.864;12.086;2022-07-30T13:47:43;7.07;;;6.47;;
9288;SDS011;4683;50.864;12.086;2022-07-30T13:50:12;7.30;;;6.70;;
9288;SDS011;4683;50.864;12.086;2022-07-30T13:52:40;7.90;;;7.20;;
9288;SDS011;4683;50.864;12.086;2022-07-30T13:55:10;7.47;;;6.87;;
9288;SDS011;4683;50.864;12.086;2022-07-30T13:57:41;8.27;;;7.57;;
9288;SDS011;4683;50.864;12.086;2022-07-30T14:00:11;7.40;;;6.80;;
9288;SDS011;4683;50.864;12.086;2022-07-30T14:02:44;7.60;;;6.90;;
9288;SDS011;4683;50.864;12.086;2022-07-30T14:05:12;7.03;;;6.47;;
9288;SDS011;4683;50.864;12.086;2022-07-30T14:07:41;8.60;;;7.87;;
9288;SDS011;4683;50.864;12.086;2022-07-30T14:10:09;8.33;;;7.63;;
9288;SDS011;4683;50.864;12.086;2022-07-30T14:12:37;9.00;;;8.00;;
9288;SDS011;4683;50.864;12.086;2022-07-30T14:15:06;7.53;;;6.93;;
9288;SDS011;4683;50.864;12.086;2022-07-30T14:17:35;11.03;;;9.93;;
9288;SDS011;4683;50.864;12.086;2022-07-30T14:20:06;9.27;;;8.37;;
9288;SDS011;4683;50.864;12.086;2022-07-30T14:22:38;8.60;;;7.80;;
9288;SDS011;4683;50.864;12.086;2022-07-30T14:25:17;7.87;;;7.10;;
9288;SDS011;4683;50.864;12.086;2022-07-30T14:27:45;8.70;;;8.00;;
9288;SDS011;4683;50.864;12.086;2022-07-30T14:30:15;8.60;;;7.87;;
9288;SDS011;4683;50.864;12.086;2022-07-30T14:32:45;9.83;;;9.03;;
9288;SDS011;4683;50.864;12.086;2022-07-30T14:35:15;7.87;;;7.27;;
9288;SDS011;4683;50.864;12.086;2022-07-30T14:37:44;8.97;;;8.17;;
9288;SDS011;4683;50.864;12.086;2022-07-30T14:40:14;8.40;;;7.70;;
9288;SDS011;4683;50.864;12.086;2022-07-30T14:42:42;8.77;;;7.93;;
9288;SDS011;4683;50.864;12.086;2022-07-30T14:45:12;9.97;;;8.97;;
9288;SDS011;4683;50.864;12.086;2022-07-30T14:47:40;9.67;;;8.83;;
9288;SDS011;4683;50.864;12.086;2022-07-30T14:50:08;9.33;;;8.47;;
9288;SDS011;4683;50.864;12.086;2022-07-30T14:52:39;8.47;;;7.67;;
9288;SDS011;4683;50.864;12.086;2022-07-30T14:55:08;8.50;;;7.73;;
9288;SDS011;4683;50.864;12.086;2022-07-30T14:57:36;9.10;;;8.30;;
9288;SDS011;4683;50.864;12.086;2022-07-30T15:00:05;10.20;;;9.13;;
9288;SDS011;4683;50.864;12.086;2022-07-30T15:02:36;8.17;;;7.40;;
9288;SDS011;4683;50.864;12.086;2022-07-30T15:05:06;8.67;;;7.90;;
9288;SDS011;4683;50.864;12.086;2022-07-30T15:07:35;9.43;;;8.53;;
9288;SDS011;4683;50.864;12.086;2022-07-30T15:10:05;8.93;;;8.23;;
9288;SDS011;4683;50.864;12.086;2022-07-30T15:12:37;8.87;;;8.17;;
9288;SDS011;4683;50.864;12.086;2022-07-30T15:15:06;8.93;;;8.13;;
9288;SDS011;4683;50.864;12.086;2022-07-30T15:17:35;9.13;;;8.37;;
9288;SDS011;4683;50.864;12.086;2022-07-30T15:20:05;10.17;;;9.30;;
9288;SDS011;4683;50.864;12.086;2022-07-30T15:22:36;9.73;;;8.93;;
9288;SDS011;4683;50.864;12.086;2022-07-30T15:25:06;9.40;;;8.60;;
9288;SDS011;4683;50.864;12.086;2022-07-30T15:27:35;9.47;;;8.43;;
9288;SDS011;4683;50.864;12.086;2022-07-30T15:30:04;10.87;;;9.83;;
9288;SDS011;4683;50.864;12.086;2022-07-30T15:32:33;9.47;;;8.67;;
9288;SDS011;4683;50.864;12.086;2022-07-30T15:35:01;10.87;;;9.87;;
9288;SDS011;4683;50.864;12.086;2022-07-30T15:37:31;9.67;;;8.77;;
9288;SDS011;4683;50.864;12.086;2022-07-30T15:40:00;10.17;;;9.27;;
9288;SDS011;4683;50.864;12.086;2022-07-30T15:42:34;9.90;;;8.90;;
9288;SDS011;4683;50.864;12.086;2022-07-30T15:45:03;9.80;;;8.80;;
9288;SDS011;4683;50.864;12.086;2022-07-30T15:47:33;10.67;;;9.67;;
9288;SDS011;4683;50.864;12.086;2022-07-30T15:50:03;10.20;;;9.40;;
9288;SDS011;4683;50.864;12.086;2022-07-30T15:52:32;9.93;;;9.03;;
9288;SDS011;4683;50.864;12.086;2022-07-30T15:55:18;9.77;;;8.87;;
9288;SDS011;4683;50.864;12.086;2022-07-30T15:57:48;9.57;;;8.87;;
9288;SDS011;4683;50.864;12.086;2022-07-30T16:00:17;9.20;;;8.37;;